createdAt,value
2019-04-20T00:01:22.791Z,14.50
2019-04-20T00:03:47.380Z,14.30
2019-04-20T00:06:17.319Z,14.30
2019-04-20T00:08:47.517Z,14.30
2019-04-20T00:11:21.863Z,14.20
2019-04-20T00:13:54.881Z,14.20
2019-04-20T00:16:16.828Z,14.10
2019-04-20T00:18:48.886Z,14.10
2019-04-20T00:21:34.521Z,14.10
2019-04-20T00:24:16.500Z,14.00
2019-04-20T00:27:15.888Z,13.90
2019-04-20T00:29:32.130Z,13.90
2019-04-20T00:31:52.276Z,13.80
2019-04-20T00:34:21.320Z,13.80
2019-04-20T00:36:43.191Z,13.80
2019-04-20T00:39:12.957Z,13.70
2019-04-20T00:41:47.991Z,13.70
2019-04-20T00:44:17.368Z,13.70
2019-04-20T00:46:51.124Z,13.60
2019-04-20T00:49:27.580Z,13.60
2019-04-20T00:52:07.647Z,13.40
2019-04-20T00:54:11.513Z,13.50
2019-04-20T00:56:39.402Z,13.50
2019-04-20T00:59:21.920Z,13.50
2019-04-20T01:01:59.853Z,13.40
2019-04-20T01:04:25.418Z,13.40
2019-04-20T01:07:11.008Z,13.40
2019-04-20T01:09:45.452Z,13.40
2019-04-20T01:12:20.406Z,13.30
2019-04-20T01:14:48.697Z,13.10
2019-04-20T01:17:12.258Z,13.20
2019-04-20T01:19:41.158Z,13.20
2019-04-20T01:22:13.614Z,13.20
2019-04-20T01:24:43.234Z,13.20
2019-04-20T01:27:16.782Z,13.10
2019-04-20T01:29:41.158Z,13.10
2019-04-20T01:32:15.609Z,13.10
2019-04-20T01:34:47.461Z,13.10
2019-04-20T01:37:23.149Z,13.00
2019-04-20T01:39:39.941Z,13.00
2019-04-20T01:42:04.593Z,12.90
2019-04-20T01:44:38.787Z,12.90
2019-04-20T01:47:04.866Z,12.90
2019-04-20T01:49:33.919Z,12.80
2019-04-20T01:52:10.533Z,12.80
2019-04-20T01:54:52.562Z,12.80
2019-04-20T01:57:29.899Z,12.80
2019-04-20T02:00:09.253Z,12.70
2019-04-20T02:02:45.007Z,12.70
2019-04-20T02:05:18.575Z,12.60
2019-04-20T02:07:47.587Z,12.60
2019-04-20T02:10:16.608Z,12.60
2019-04-20T02:12:51.759Z,12.60
2019-04-20T02:15:23.088Z,12.50
2019-04-20T02:17:59.583Z,12.50
2019-04-20T02:20:41.789Z,12.70
2019-04-20T02:23:06.543Z,12.40
2019-04-20T02:25:18.632Z,12.30
2019-04-20T02:27:54.935Z,12.30
2019-04-20T02:30:58.002Z,12.20
2019-04-20T02:36:27.485Z,12.10
2019-04-20T02:39:40.681Z,12.20
2019-04-20T02:41:51.419Z,12.20
2019-04-20T02:44:24.150Z,12.20
2019-04-20T02:46:51.029Z,12.20
2019-04-20T02:49:29.258Z,12.20
2019-04-20T02:51:47.609Z,12.10
2019-04-20T02:54:15.045Z,12.10
2019-04-20T02:56:48.408Z,12.10
2019-04-20T02:59:45.017Z,12.30
2019-04-20T03:01:43.452Z,12.20
2019-04-20T03:03:54.607Z,12.10
2019-04-20T03:06:33.038Z,12.10
2019-04-20T03:09:18.274Z,12.10
2019-04-20T03:11:49.934Z,12.10
2019-04-20T03:14:10.913Z,12.10
2019-04-20T03:16:38.532Z,12.00
2019-04-20T03:19:09.390Z,12.10
2019-04-20T03:21:43.452Z,12.10
2019-04-20T03:24:19.072Z,12.00
2019-04-20T03:26:40.778Z,12.00
2019-04-20T03:29:40.896Z,12.00
2019-04-20T03:35:12.112Z,11.90
2019-04-20T03:37:39.036Z,11.90
2019-04-20T03:39:57.988Z,11.90
2019-04-20T03:42:13.870Z,11.80
2019-04-20T03:44:50.430Z,11.80
2019-04-20T03:47:22.716Z,11.80
2019-04-20T03:50:07.898Z,11.70
2019-04-20T03:52:57.835Z,11.70
2019-04-20T03:55:52.633Z,11.60
2019-04-20T03:58:48.899Z,11.60
2019-04-20T04:01:58.675Z,11.30
2019-04-20T04:04:21.486Z,11.50
2019-04-20T04:06:41.633Z,11.50
2019-04-20T04:09:14.682Z,11.40
2019-04-20T04:11:43.472Z,11.40
2019-04-20T04:14:00.759Z,11.30
2019-04-20T04:16:39.657Z,11.30
2019-04-20T04:19:04.546Z,11.30
2019-04-20T04:21:44.684Z,11.20
2019-04-20T04:24:14.299Z,11.20
2019-04-20T04:26:42.834Z,11.20
2019-04-20T04:29:28.763Z,11.20
2019-04-20T04:31:57.727Z,11.20
2019-04-20T04:34:17.318Z,11.20
2019-04-20T04:36:52.397Z,11.20
2019-04-20T04:39:22.620Z,11.10
2019-04-20T04:41:58.378Z,11.10
2019-04-20T04:44:11.142Z,11.10
2019-04-20T04:46:26.906Z,11.10
2019-04-20T04:49:03.908Z,11.10
2019-04-20T04:51:29.783Z,11.00
2019-04-20T04:54:02.960Z,11.00
2019-04-20T04:56:25.170Z,11.00
2019-04-20T04:58:53.807Z,11.00
2019-04-20T05:01:25.789Z,11.00
2019-04-20T05:04:17.481Z,11.00
2019-04-20T05:06:33.194Z,11.00
2019-04-20T05:08:54.837Z,11.00
2019-04-20T05:11:19.594Z,11.00
2019-04-20T05:13:56.862Z,11.00
2019-04-20T05:16:43.169Z,11.00
2019-04-20T05:19:13.293Z,11.00
2019-04-20T05:22:11.198Z,11.00
2019-04-20T05:24:57.993Z,11.00
2019-04-20T05:27:50.854Z,11.10
2019-04-20T05:30:01.600Z,11.10
2019-04-20T05:32:39.619Z,11.10
2019-04-20T05:35:23.689Z,11.10
2019-04-20T05:38:08.103Z,11.10
2019-04-20T05:40:22.639Z,11.10
2019-04-20T05:42:54.181Z,11.10
2019-04-20T05:45:22.281Z,11.20
2019-04-20T05:47:48.434Z,11.20
2019-04-20T05:50:17.365Z,11.30
2019-04-20T05:52:56.270Z,11.20
2019-04-20T05:55:23.744Z,11.50
2019-04-20T05:57:52.445Z,11.60
2019-04-20T06:00:19.160Z,11.70
2019-04-20T06:02:52.790Z,11.80
2019-04-20T06:05:25.542Z,11.90
2019-04-20T06:07:52.174Z,12.00
2019-04-20T06:10:27.632Z,12.10
2019-04-20T06:12:52.959Z,12.20
2019-04-20T06:15:42.099Z,12.30
2019-04-20T06:18:19.013Z,12.60
2019-04-20T06:20:50.189Z,12.30
2019-04-20T06:26:35.151Z,12.80
2019-04-20T06:28:46.546Z,13.00
2019-04-20T06:31:26.606Z,13.10
2019-04-20T06:36:49.909Z,13.30
2019-04-20T06:42:06.562Z,13.60
2019-04-20T06:44:32.232Z,13.70
2019-04-20T06:47:13.573Z,13.80
2019-04-20T06:49:31.475Z,13.90
2019-04-20T06:52:12.974Z,14.10
2019-04-20T06:54:38.060Z,14.20
2019-04-20T06:57:07.232Z,14.30
2019-04-20T06:59:56.174Z,14.40
2019-04-20T07:02:17.289Z,14.50
2019-04-20T07:07:14.342Z,14.70
2019-04-20T07:12:08.029Z,15.00
2019-04-20T07:14:34.482Z,15.20
2019-04-20T07:17:27.052Z,15.40
2019-04-20T07:20:04.315Z,15.50
2019-04-20T07:22:46.162Z,16.10
2019-04-20T07:25:14.389Z,16.00
2019-04-20T07:27:40.287Z,16.20
2019-04-20T07:30:13.734Z,16.40
2019-04-20T07:32:48.178Z,16.70
2019-04-20T07:35:08.745Z,17.00
2019-04-20T07:40:10.414Z,17.50
2019-04-20T07:42:40.999Z,18.00
2019-04-20T07:45:14.867Z,18.80
2019-04-20T07:50:09.099Z,21.60
2019-04-20T07:52:33.902Z,23.80
2019-04-20T07:55:28.047Z,26.10
2019-04-20T07:57:39.400Z,28.30
2019-04-20T08:00:08.416Z,29.40
2019-04-20T08:03:03.366Z,30.40
2019-04-20T08:05:31.013Z,31.30
2019-04-20T08:07:57.599Z,32.20
2019-04-20T08:10:34.263Z,32.90
2019-04-20T08:13:09.415Z,33.40
2019-04-20T08:18:06.436Z,34.20
2019-04-20T08:20:43.685Z,34.60
2019-04-20T08:23:09.279Z,34.20
2019-04-20T08:25:31.577Z,34.30
2019-04-20T08:28:23.250Z,34.00
2019-04-20T08:31:21.769Z,33.00
2019-04-20T08:34:07.587Z,31.10
2019-04-20T08:36:29.969Z,28.90
2019-04-20T08:39:16.565Z,27.40
2019-04-20T08:41:20.663Z,26.30
2019-04-20T08:43:58.917Z,25.20
2019-04-20T08:46:26.807Z,24.40
2019-04-20T08:48:56.782Z,23.80
2019-04-20T08:51:25.942Z,23.30
2019-04-20T08:53:51.767Z,22.90
2019-04-20T08:56:22.038Z,22.70
2019-04-20T08:58:41.430Z,22.50
2019-04-20T09:01:14.081Z,22.30
2019-04-20T09:03:53.181Z,22.20
2019-04-20T09:06:25.180Z,22.20
2019-04-20T09:08:49.190Z,22.00
2019-04-20T09:11:21.902Z,22.00
2019-04-20T09:13:43.083Z,21.80
2019-04-20T09:16:08.725Z,21.80
2019-04-20T09:18:47.639Z,21.80
2019-04-20T09:21:23.403Z,22.00
2019-04-20T09:23:58.954Z,21.80
2019-04-20T09:26:32.782Z,21.90
2019-04-20T09:29:12.729Z,21.90
2019-04-20T09:31:39.315Z,21.90
2019-04-20T09:34:27.771Z,22.00
2019-04-20T09:37:04.543Z,22.10
2019-04-20T09:39:39.528Z,22.30
2019-04-20T09:42:33.394Z,22.30
2019-04-20T09:45:04.502Z,22.30
2019-04-20T09:47:36.813Z,22.20
2019-04-20T09:50:20.939Z,22.10
2019-04-20T09:52:49.096Z,22.30
2019-04-20T09:55:19.457Z,22.50
2019-04-20T09:57:50.134Z,22.60
2019-04-20T10:00:15.280Z,22.70
2019-04-20T10:02:34.463Z,22.70
2019-04-20T10:05:05.325Z,22.80
2019-04-20T10:07:35.606Z,22.90
2019-04-20T10:10:15.967Z,23.00
2019-04-20T10:12:33.466Z,23.20
2019-04-20T10:15:10.367Z,23.30
2019-04-20T10:17:33.420Z,23.40
2019-04-20T10:20:04.574Z,23.40
2019-04-20T10:22:30.856Z,23.50
2019-04-20T10:24:58.477Z,23.60
2019-04-20T10:27:26.502Z,23.70
2019-04-20T10:29:53.741Z,23.90
2019-04-20T10:32:25.211Z,23.80
2019-04-20T10:34:50.745Z,23.90
2019-04-20T10:37:24.180Z,24.00
2019-04-20T10:39:52.430Z,24.00
2019-04-20T10:42:26.075Z,24.10
2019-04-20T10:44:56.840Z,24.10
2019-04-20T10:47:25.300Z,24.20
2019-04-20T10:49:55.335Z,24.30
2019-04-20T10:52:24.044Z,24.40
2019-04-20T10:54:52.335Z,24.50
2019-04-20T10:57:21.618Z,24.70
2019-04-20T10:59:49.901Z,24.60
2019-04-20T11:02:21.897Z,24.70
2019-04-20T11:04:50.972Z,24.70
2019-04-20T11:07:22.634Z,24.80
2019-04-20T11:10:03.083Z,24.90
2019-04-20T11:12:22.148Z,24.90
2019-04-20T11:14:50.589Z,24.90
2019-04-20T11:17:24.603Z,25.00
2019-04-20T11:19:52.953Z,24.90
2019-04-20T11:22:22.238Z,25.10
2019-04-20T11:24:50.455Z,25.10
2019-04-20T11:27:18.722Z,25.10
2019-04-20T11:29:49.811Z,25.20
2019-04-20T11:32:18.004Z,25.30
2019-04-20T11:34:45.523Z,25.40
2019-04-20T11:37:15.139Z,25.60
2019-04-20T11:39:43.148Z,25.80
2019-04-20T11:42:11.860Z,25.80
2019-04-20T11:44:40.197Z,25.80
2019-04-20T11:47:08.472Z,25.90
2019-04-20T11:49:37.527Z,26.00
2019-04-20T11:52:05.852Z,26.10
2019-04-20T11:54:35.095Z,25.70
2019-04-20T11:57:03.695Z,25.70
2019-04-20T11:59:32.740Z,25.80
2019-04-20T12:02:25.377Z,26.00
2019-04-20T12:05:09.048Z,25.90
2019-04-20T12:07:22.633Z,25.90
2019-04-20T12:09:58.514Z,26.00
2019-04-20T12:12:36.293Z,26.00
2019-04-20T12:14:54.894Z,25.80
2019-04-20T12:17:23.745Z,25.70
2019-04-20T12:19:53.123Z,25.60
2019-04-20T12:22:21.541Z,25.70
2019-04-20T12:24:50.033Z,25.80
2019-04-20T12:27:18.659Z,25.90
2019-04-20T12:29:47.887Z,26.00
2019-04-20T12:32:16.706Z,26.00
2019-04-20T12:34:45.446Z,26.10
2019-04-20T12:37:15.377Z,26.20
2019-04-20T12:39:44.874Z,26.30
2019-04-20T12:42:13.008Z,26.40
2019-04-20T12:44:41.843Z,26.40
2019-04-20T12:47:10.322Z,26.50
2019-04-20T12:49:38.896Z,26.50
2019-04-20T12:52:08.425Z,26.40
2019-04-20T12:54:36.884Z,26.40
2019-04-20T12:57:10.794Z,26.30
2019-04-20T12:59:54.144Z,26.50
2019-04-20T13:02:23.058Z,26.40
2019-04-20T13:04:51.149Z,26.40
2019-04-20T13:07:22.775Z,26.40
2019-04-20T13:09:52.669Z,26.40
2019-04-20T13:12:50.323Z,26.40
2019-04-20T13:16:00.740Z,26.40
2019-04-20T13:18:43.905Z,26.40
2019-04-20T13:21:13.418Z,26.50
2019-04-20T13:23:49.023Z,26.60
2019-04-20T13:26:17.459Z,26.60
2019-04-20T13:28:46.451Z,26.60
2019-04-20T13:31:15.701Z,26.60
2019-04-20T13:33:49.354Z,26.60
2019-04-20T13:36:17.495Z,26.80
2019-04-20T13:38:45.888Z,26.70
2019-04-20T13:41:13.783Z,26.60
2019-04-20T13:43:41.855Z,26.60
2019-04-20T13:46:16.336Z,26.60
2019-04-20T13:48:44.749Z,26.70
2019-04-20T13:51:12.707Z,26.60
2019-04-20T13:53:41.048Z,26.70
2019-04-20T13:56:09.967Z,26.60
2019-04-20T13:58:56.230Z,26.60
2019-04-20T14:01:35.374Z,26.70
2019-04-20T14:04:10.762Z,26.70
2019-04-20T14:06:39.493Z,26.80
2019-04-20T14:09:07.582Z,26.70
2019-04-20T14:11:35.991Z,26.70
2019-04-20T14:14:06.254Z,26.80
2019-04-20T14:16:34.822Z,27.00
2019-04-20T14:19:02.984Z,26.60
2019-04-20T14:21:30.282Z,26.60
2019-04-20T14:23:59.055Z,26.60
2019-04-20T14:26:30.673Z,26.60
2019-04-20T14:28:58.876Z,26.60
2019-04-20T14:31:26.165Z,26.60
2019-04-20T14:33:53.098Z,26.60
2019-04-20T14:36:21.097Z,26.40
2019-04-20T14:38:49.793Z,26.50
2019-04-20T14:41:18.145Z,26.40
2019-04-20T14:43:46.943Z,26.50
2019-04-20T14:46:14.661Z,26.50
2019-04-20T14:48:42.691Z,26.50
2019-04-20T14:51:09.967Z,26.30
2019-04-20T14:53:37.764Z,26.70
2019-04-20T14:56:05.385Z,26.20
2019-04-20T14:58:45.669Z,26.20
2019-04-20T15:01:24.898Z,26.20
2019-04-20T15:04:00.238Z,26.30
2019-04-20T15:06:23.747Z,26.30
2019-04-20T15:08:52.577Z,26.20
2019-04-20T15:11:20.947Z,26.20
2019-04-20T15:13:50.865Z,26.30
2019-04-20T15:16:18.174Z,26.20
2019-04-20T15:19:05.408Z,26.30
2019-04-20T15:21:33.534Z,26.20
2019-04-20T15:24:01.699Z,26.10
2019-04-20T15:26:28.959Z,26.00
2019-04-20T15:28:56.612Z,26.00
2019-04-20T15:31:25.913Z,26.00
2019-04-20T15:33:53.262Z,26.00
2019-04-20T15:36:20.459Z,26.00
2019-04-20T15:38:47.611Z,26.00
2019-04-20T15:41:16.715Z,26.00
2019-04-20T15:43:45.698Z,26.00
2019-04-20T15:46:13.219Z,25.90
2019-04-20T15:48:41.730Z,25.80
2019-04-20T15:51:17.323Z,25.80
2019-04-20T15:53:44.812Z,25.70
2019-04-20T15:56:12.114Z,25.70
2019-04-20T15:58:40.585Z,25.60
2019-04-20T16:01:09.995Z,25.80
2019-04-20T16:03:47.656Z,25.60
2019-04-20T16:06:17.055Z,25.60
2019-04-20T16:08:48.287Z,25.50
2019-04-20T16:11:17.283Z,25.40
2019-04-20T16:13:53.408Z,25.10
2019-04-20T16:16:19.729Z,25.30
2019-04-20T16:18:48.567Z,25.30
2019-04-20T16:21:22.545Z,25.30
2019-04-20T16:24:08.714Z,25.20
2019-04-20T16:27:02.069Z,25.10
2019-04-20T16:29:29.425Z,25.20
2019-04-20T16:31:58.345Z,25.10
2019-04-20T16:34:33.727Z,25.20
2019-04-20T16:37:02.182Z,24.90
2019-04-20T16:39:30.347Z,24.80
2019-04-20T16:42:02.367Z,24.80
2019-04-20T16:44:31.371Z,24.90
2019-04-20T16:46:58.471Z,24.80
2019-04-20T16:49:25.519Z,24.80
2019-04-20T16:51:58.779Z,24.80
2019-04-20T16:54:26.067Z,24.80
2019-04-20T16:56:53.187Z,24.60
2019-04-20T16:59:28.144Z,24.50
2019-04-20T17:01:53.973Z,24.20
2019-04-20T17:04:24.001Z,24.30
2019-04-20T17:07:18.717Z,24.30
2019-04-20T17:09:47.372Z,24.20
2019-04-20T17:12:15.445Z,24.10
2019-04-20T17:14:43.337Z,24.00
2019-04-20T17:17:11.569Z,23.90
2019-04-20T17:19:43.961Z,23.70
2019-04-20T17:22:11.721Z,23.80
2019-04-20T17:24:40.476Z,23.70
2019-04-20T17:27:23.879Z,23.70
2019-04-20T17:30:10.427Z,23.70
2019-04-20T17:32:39.255Z,23.50
2019-04-20T17:35:18.041Z,23.40
2019-04-20T17:37:39.928Z,23.30
2019-04-20T17:40:27.052Z,23.20
2019-04-20T17:42:47.328Z,23.10
2019-04-20T17:45:10.400Z,23.00
2019-04-20T17:47:51.266Z,22.90
2019-04-20T17:50:20.203Z,22.80
2019-04-20T17:52:49.613Z,22.80
2019-04-20T17:55:17.600Z,22.60
2019-04-20T17:57:37.313Z,22.60
2019-04-20T18:00:16.857Z,22.70
2019-04-20T18:03:04.632Z,22.30
2019-04-20T18:05:39.296Z,22.20
2019-04-20T18:08:12.070Z,22.30
2019-04-20T18:10:35.352Z,22.10
2019-04-20T18:12:51.947Z,22.10
2019-04-20T18:15:36.953Z,22.00
2019-04-20T18:18:23.585Z,21.90
2019-04-20T18:20:58.978Z,22.00
2019-04-20T18:23:34.399Z,21.70
2019-04-20T18:26:22.672Z,21.70
2019-04-20T18:28:58.010Z,21.70
2019-04-20T18:31:21.814Z,21.60
2019-04-20T18:33:54.087Z,21.50
2019-04-20T18:36:30.252Z,21.10
2019-04-20T18:38:59.512Z,21.30
2019-04-20T18:41:35.428Z,21.20
2019-04-20T18:43:58.615Z,21.10
2019-04-20T18:46:49.885Z,21.10
2019-04-20T18:49:15.057Z,21.00
2019-04-20T18:51:26.095Z,20.90
2019-04-20T18:53:55.652Z,20.90
2019-04-20T18:56:32.291Z,20.90
2019-04-20T18:58:56.638Z,20.80
2019-04-20T19:01:31.003Z,20.70
2019-04-20T19:03:57.238Z,20.70
2019-04-20T19:06:26.068Z,20.60
2019-04-20T19:08:55.975Z,20.60
2019-04-20T19:11:25.754Z,20.60
2019-04-20T19:14:23.593Z,20.50
2019-04-20T19:17:02.041Z,20.50
2019-04-20T19:19:34.800Z,20.30
2019-04-20T19:21:56.205Z,20.30
2019-04-20T19:24:27.455Z,20.20
2019-04-20T19:26:58.308Z,20.20
2019-04-20T19:29:30.062Z,20.10
2019-04-20T19:32:14.328Z,20.20
2019-04-20T19:34:37.728Z,20.00
2019-04-20T19:37:03.909Z,20.00
2019-04-20T19:39:40.254Z,20.00
2019-04-20T19:42:08.628Z,19.90
2019-04-20T19:44:38.150Z,19.80
2019-04-20T19:47:17.828Z,19.80
2019-04-20T19:49:36.393Z,19.70
2019-04-20T19:52:25.197Z,19.90
2019-04-20T19:54:43.382Z,19.50
2019-04-20T19:57:05.107Z,19.60
2019-04-20T19:59:31.524Z,19.50
2019-04-20T20:01:53.853Z,19.50
2019-04-20T20:04:23.739Z,19.40
2019-04-20T20:06:57.910Z,19.40
2019-04-20T20:09:21.727Z,19.30
2019-04-20T20:11:50.089Z,19.30
2019-04-20T20:14:32.016Z,19.30
2019-04-20T20:17:14.192Z,19.00
2019-04-20T20:19:32.419Z,18.90
2019-04-20T20:22:04.565Z,18.80
2019-04-20T20:24:19.606Z,18.80
2019-04-20T20:26:56.315Z,18.70
2019-04-20T20:29:28.382Z,18.60
2019-04-20T20:32:05.188Z,18.70
2019-04-20T20:34:29.020Z,18.60
2019-04-20T20:36:54.590Z,18.60
2019-04-20T20:39:27.730Z,18.60
2019-04-20T20:42:04.963Z,18.50
2019-04-20T20:44:33.126Z,18.50
2019-04-20T20:46:59.283Z,18.40
2019-04-20T20:49:40.184Z,18.50
2019-04-20T20:52:12.039Z,18.30
2019-04-20T20:54:34.681Z,18.20
2019-04-20T20:57:01.428Z,18.10
2019-04-20T20:59:34.784Z,18.10
2019-04-20T21:02:05.810Z,18.00
2019-04-20T21:04:25.761Z,17.90
2019-04-20T21:06:55.019Z,17.80
2019-04-20T21:09:25.402Z,17.80
2019-04-20T21:12:00.599Z,17.80
2019-04-20T21:14:29.155Z,17.70
2019-04-20T21:17:03.035Z,17.70
2019-04-20T21:19:45.481Z,17.60
2019-04-20T21:22:04.807Z,17.60
2019-04-20T21:24:30.373Z,17.50
2019-04-20T21:27:00.661Z,17.50
2019-04-20T21:29:35.870Z,17.40
2019-04-20T21:32:05.085Z,17.30
2019-04-20T21:34:31.182Z,17.30
2019-04-20T21:37:07.299Z,17.20
2019-04-20T21:39:38.993Z,17.20
2019-04-20T21:42:09.687Z,16.70
2019-04-20T21:44:35.642Z,16.90
2019-04-20T21:47:02.985Z,16.80
2019-04-20T21:49:46.304Z,16.80
2019-04-20T21:52:06.526Z,16.70
2019-04-20T21:54:34.031Z,16.70
2019-04-20T21:57:05.537Z,16.60
2019-04-20T21:59:39.077Z,16.50
2019-04-20T22:02:10.366Z,16.50
2019-04-20T22:04:33.462Z,16.40
2019-04-20T22:07:02.540Z,16.40
2019-04-20T22:09:37.126Z,16.40
2019-04-20T22:12:00.293Z,16.50
2019-04-20T22:14:32.250Z,16.20
2019-04-20T22:17:01.839Z,16.20
2019-04-20T22:19:41.129Z,16.10
2019-04-20T22:22:07.657Z,16.20
2019-04-20T22:24:45.453Z,16.20
2019-04-20T22:27:06.322Z,16.00
2019-04-20T22:29:30.189Z,15.80
2019-04-20T22:32:03.966Z,15.70
2019-04-20T22:34:28.411Z,15.70
2019-04-20T22:36:58.042Z,15.60
2019-04-20T22:39:39.782Z,15.50
2019-04-20T22:42:07.414Z,15.50
2019-04-20T22:44:34.232Z,15.40
2019-04-20T22:47:05.506Z,15.40
2019-04-20T22:49:45.123Z,15.30
2019-04-20T22:52:18.490Z,15.30
2019-04-20T22:54:46.663Z,15.20
2019-04-20T22:57:11.805Z,15.10
2019-04-20T22:59:46.058Z,15.10
2019-04-20T23:02:01.103Z,15.00
2019-04-20T23:04:30.891Z,14.90
2019-04-20T23:06:59.127Z,14.90
2019-04-20T23:09:26.778Z,14.80
2019-04-20T23:12:03.849Z,15.00
2019-04-20T23:14:26.481Z,14.80
2019-04-20T23:16:57.338Z,14.70
2019-04-20T23:19:35.657Z,14.60
2019-04-20T23:21:59.598Z,14.50
2019-04-20T23:24:23.703Z,14.50
2019-04-20T23:26:55.436Z,14.30
2019-04-20T23:29:29.530Z,14.30
2019-04-20T23:31:59.427Z,14.20
2019-04-20T23:34:28.444Z,14.20
2019-04-20T23:36:54.798Z,14.10
2019-04-20T23:39:29.158Z,14.10
2019-04-20T23:41:58.566Z,14.00
2019-04-20T23:44:35.700Z,13.90
2019-04-20T23:47:14.676Z,14.10
2019-04-20T23:50:00.268Z,13.90
2019-04-20T23:52:35.650Z,13.80
2019-04-20T23:54:51.175Z,13.70
2019-04-20T23:57:15.600Z,13.60
2019-04-20T23:59:46.294Z,13.60
